sensor_id;sensor_type;location;lat;lon;timestamp;P1;durP1;ratioP1;P2;durP2;ratioP2
50092;SDS011;35974;47.752;10.290;2022-10-31T00:00:47;9.90;;;4.70;;
50092;SDS011;35974;47.752;10.290;2022-10-31T00:03:14;8.50;;;3.85;;
50092;SDS011;35974;47.752;10.290;2022-10-31T00:05:45;10.02;;;4.38;;
50092;SDS011;35974;47.752;10.290;2022-10-31T00:08:13;7.47;;;4.38;;
50092;SDS011;35974;47.752;10.290;2022-10-31T00:10:40;12.32;;;4.18;;
50092;SDS011;35974;47.752;10.290;2022-10-31T00:13:08;8.32;;;4.45;;
50092;SDS011;35974;47.752;10.290;2022-10-31T00:15:36;8.43;;;4.03;;
50092;SDS011;35974;47.752;10.290;2022-10-31T00:18:04;16.25;;;4.07;;
50092;SDS011;35974;47.752;10.290;2022-10-31T00:20:31;13.02;;;4.70;;
50092;SDS011;35974;47.752;10.290;2022-10-31T00:22:58;11.50;;;5.15;;
50092;SDS011;35974;47.752;10.290;2022-10-31T00:25:29;14.23;;;5.40;;
50092;SDS011;35974;47.752;10.290;2022-10-31T00:28:00;12.90;;;4.57;;
50092;SDS011;35974;47.752;10.290;2022-10-31T00:30:27;11.80;;;5.00;;
50092;SDS011;35974;47.752;10.290;2022-10-31T00:32:53;11.45;;;4.25;;
50092;SDS011;35974;47.752;10.290;2022-10-31T00:35:21;8.00;;;4.25;;
50092;SDS011;35974;47.752;10.290;2022-10-31T00:37:47;10.82;;;4.28;;
50092;SDS011;35974;47.752;10.290;2022-10-31T00:40:13;8.85;;;4.43;;
50092;SDS011;35974;47.752;10.290;2022-10-31T00:42:40;9.63;;;4.15;;
50092;SDS011;35974;47.752;10.290;2022-10-31T00:45:08;9.63;;;3.88;;
50092;SDS011;35974;47.752;10.290;2022-10-31T00:47:36;12.00;;;3.83;;
50092;SDS011;35974;47.752;10.290;2022-10-31T00:50:03;8.00;;;3.75;;
50092;SDS011;35974;47.752;10.290;2022-10-31T00:52:30;7.72;;;3.35;;
50092;SDS011;35974;47.752;10.290;2022-10-31T00:54:57;7.10;;;3.65;;
50092;SDS011;35974;47.752;10.290;2022-10-31T00:57:23;7.07;;;3.80;;
50092;SDS011;35974;47.752;10.290;2022-10-31T00:59:50;8.55;;;3.85;;
50092;SDS011;35974;47.752;10.290;2022-10-31T01:02:16;9.70;;;4.13;;
50092;SDS011;35974;47.752;10.290;2022-10-31T01:04:43;8.43;;;4.07;;
50092;SDS011;35974;47.752;10.290;2022-10-31T01:07:10;9.57;;;3.95;;
50092;SDS011;35974;47.752;10.290;2022-10-31T01:09:38;8.02;;;3.97;;
50092;SDS011;35974;47.752;10.290;2022-10-31T01:12:04;9.05;;;4.13;;
50092;SDS011;35974;47.752;10.290;2022-10-31T01:14:31;9.60;;;4.22;;
50092;SDS011;35974;47.752;10.290;2022-10-31T01:16:57;8.35;;;3.53;;
50092;SDS011;35974;47.752;10.290;2022-10-31T01:19:24;13.82;;;4.93;;
50092;SDS011;35974;47.752;10.290;2022-10-31T01:21:50;6.00;;;3.60;;
50092;SDS011;35974;47.752;10.290;2022-10-31T01:24:20;8.32;;;4.32;;
50092;SDS011;35974;47.752;10.290;2022-10-31T01:26:46;8.77;;;3.78;;
50092;SDS011;35974;47.752;10.290;2022-10-31T01:29:13;7.47;;;3.83;;
50092;SDS011;35974;47.752;10.290;2022-10-31T01:31:40;8.70;;;4.00;;
50092;SDS011;35974;47.752;10.290;2022-10-31T01:34:07;5.80;;;3.33;;
50092;SDS011;35974;47.752;10.290;2022-10-31T01:36:36;11.43;;;4.10;;
50092;SDS011;35974;47.752;10.290;2022-10-31T01:39:04;6.70;;;3.70;;
50092;SDS011;35974;47.752;10.290;2022-10-31T01:41:33;8.98;;;3.63;;
50092;SDS011;35974;47.752;10.290;2022-10-31T01:46:41;8.07;;;4.05;;
50092;SDS011;35974;47.752;10.290;2022-10-31T01:49:34;7.20;;;3.70;;
50092;SDS011;35974;47.752;10.290;2022-10-31T01:54:39;8.57;;;3.78;;
50092;SDS011;35974;47.752;10.290;2022-10-31T01:57:10;10.30;;;3.80;;
50092;SDS011;35974;47.752;10.290;2022-10-31T01:59:40;7.38;;;3.53;;
50092;SDS011;35974;47.752;10.290;2022-10-31T02:02:11;9.23;;;3.70;;
50092;SDS011;35974;47.752;10.290;2022-10-31T02:04:45;11.18;;;3.70;;
50092;SDS011;35974;47.752;10.290;2022-10-31T02:07:14;8.15;;;3.47;;
50092;SDS011;35974;47.752;10.290;2022-10-31T02:09:44;8.43;;;3.72;;
50092;SDS011;35974;47.752;10.290;2022-10-31T02:12:13;9.80;;;3.70;;
50092;SDS011;35974;47.752;10.290;2022-10-31T02:14:41;7.72;;;3.30;;
50092;SDS011;35974;47.752;10.290;2022-10-31T02:17:08;6.30;;;3.28;;
50092;SDS011;35974;47.752;10.290;2022-10-31T02:22:16;10.63;;;3.78;;
50092;SDS011;35974;47.752;10.290;2022-10-31T02:24:56;9.05;;;3.22;;
50092;SDS011;35974;47.752;10.290;2022-10-31T02:30:12;12.30;;;3.60;;
50092;SDS011;35974;47.752;10.290;2022-10-31T02:35:42;7.38;;;2.97;;
50092;SDS011;35974;47.752;10.290;2022-10-31T02:41:26;6.53;;;3.22;;
50092;SDS011;35974;47.752;10.290;2022-10-31T02:44:03;9.07;;;3.25;;
50092;SDS011;35974;47.752;10.290;2022-10-31T02:49:23;8.63;;;3.35;;
50092;SDS011;35974;47.752;10.290;2022-10-31T02:51:54;6.93;;;3.13;;
50092;SDS011;35974;47.752;10.290;2022-10-31T02:54:22;9.98;;;3.30;;
50092;SDS011;35974;47.752;10.290;2022-10-31T02:56:52;8.82;;;2.80;;
50092;SDS011;35974;47.752;10.290;2022-10-31T02:59:23;9.82;;;3.33;;
50092;SDS011;35974;47.752;10.290;2022-10-31T03:02:00;7.80;;;3.38;;
50092;SDS011;35974;47.752;10.290;2022-10-31T03:07:41;11.40;;;3.40;;
50092;SDS011;35974;47.752;10.290;2022-10-31T03:13:03;7.03;;;3.17;;
50092;SDS011;35974;47.752;10.290;2022-10-31T03:15:49;8.13;;;3.20;;
50092;SDS011;35974;47.752;10.290;2022-10-31T03:20:56;23.88;;;3.67;;
50092;SDS011;35974;47.752;10.290;2022-10-31T03:23:46;5.85;;;3.25;;
50092;SDS011;35974;47.752;10.290;2022-10-31T03:26:14;7.72;;;3.55;;
50092;SDS011;35974;47.752;10.290;2022-10-31T03:28:53;9.93;;;3.15;;
50092;SDS011;35974;47.752;10.290;2022-10-31T03:31:26;6.55;;;3.25;;
50092;SDS011;35974;47.752;10.290;2022-10-31T03:33:58;6.47;;;2.95;;
50092;SDS011;35974;47.752;10.290;2022-10-31T03:36:26;7.97;;;2.80;;
50092;SDS011;35974;47.752;10.290;2022-10-31T03:38:56;3.95;;;2.55;;
50092;SDS011;35974;47.752;10.290;2022-10-31T03:41:24;4.97;;;2.95;;
50092;SDS011;35974;47.752;10.290;2022-10-31T03:43:58;9.88;;;2.85;;
50092;SDS011;35974;47.752;10.290;2022-10-31T03:46:31;5.07;;;2.63;;
50092;SDS011;35974;47.752;10.290;2022-10-31T03:48:57;5.22;;;2.63;;
50092;SDS011;35974;47.752;10.290;2022-10-31T03:51:31;7.90;;;2.78;;
50092;SDS011;35974;47.752;10.290;2022-10-31T03:56:55;7.20;;;3.22;;
50092;SDS011;35974;47.752;10.290;2022-10-31T03:59:32;8.65;;;3.33;;
50092;SDS011;35974;47.752;10.290;2022-10-31T04:02:02;9.70;;;3.00;;
50092;SDS011;35974;47.752;10.290;2022-10-31T04:04:34;9.18;;;3.28;;
50092;SDS011;35974;47.752;10.290;2022-10-31T04:07:02;5.68;;;2.85;;
50092;SDS011;35974;47.752;10.290;2022-10-31T04:09:31;9.55;;;3.10;;
50092;SDS011;35974;47.752;10.290;2022-10-31T04:12:01;7.25;;;3.10;;
50092;SDS011;35974;47.752;10.290;2022-10-31T04:14:35;7.10;;;2.72;;
50092;SDS011;35974;47.752;10.290;2022-10-31T04:17:05;5.93;;;2.63;;
50092;SDS011;35974;47.752;10.290;2022-10-31T04:19:36;7.10;;;3.08;;
50092;SDS011;35974;47.752;10.290;2022-10-31T04:22:02;10.93;;;3.03;;
50092;SDS011;35974;47.752;10.290;2022-10-31T04:24:29;8.25;;;2.50;;
50092;SDS011;35974;47.752;10.290;2022-10-31T04:26:55;7.57;;;2.53;;
50092;SDS011;35974;47.752;10.290;2022-10-31T04:29:32;4.30;;;2.63;;
50092;SDS011;35974;47.752;10.290;2022-10-31T04:31:58;5.57;;;2.50;;
50092;SDS011;35974;47.752;10.290;2022-10-31T04:34:25;6.60;;;2.90;;
50092;SDS011;35974;47.752;10.290;2022-10-31T04:36:51;7.63;;;3.10;;
50092;SDS011;35974;47.752;10.290;2022-10-31T04:39:18;9.27;;;2.85;;
50092;SDS011;35974;47.752;10.290;2022-10-31T04:41:51;6.72;;;2.55;;
50092;SDS011;35974;47.752;10.290;2022-10-31T04:44:18;6.25;;;2.67;;
50092;SDS011;35974;47.752;10.290;2022-10-31T04:46:44;7.22;;;2.70;;
50092;SDS011;35974;47.752;10.290;2022-10-31T04:51:40;9.52;;;2.72;;
50092;SDS011;35974;47.752;10.290;2022-10-31T04:54:07;7.43;;;2.63;;
50092;SDS011;35974;47.752;10.290;2022-10-31T04:56:33;7.40;;;2.92;;
50092;SDS011;35974;47.752;10.290;2022-10-31T04:58:59;7.07;;;3.40;;
50092;SDS011;35974;47.752;10.290;2022-10-31T05:01:26;8.07;;;3.00;;
50092;SDS011;35974;47.752;10.290;2022-10-31T05:03:54;9.68;;;3.00;;
50092;SDS011;35974;47.752;10.290;2022-10-31T05:06:20;6.70;;;2.85;;
50092;SDS011;35974;47.752;10.290;2022-10-31T05:08:46;6.93;;;2.75;;
50092;SDS011;35974;47.752;10.290;2022-10-31T05:11:13;9.73;;;2.88;;
50092;SDS011;35974;47.752;10.290;2022-10-31T05:13:39;7.50;;;3.38;;
50092;SDS011;35974;47.752;10.290;2022-10-31T05:16:07;7.00;;;2.85;;
50092;SDS011;35974;47.752;10.290;2022-10-31T05:18:33;6.68;;;2.70;;
50092;SDS011;35974;47.752;10.290;2022-10-31T05:21:00;5.22;;;2.70;;
50092;SDS011;35974;47.752;10.290;2022-10-31T05:23:26;7.70;;;2.90;;
50092;SDS011;35974;47.752;10.290;2022-10-31T05:25:52;6.78;;;2.60;;
50092;SDS011;35974;47.752;10.290;2022-10-31T05:28:19;7.90;;;2.63;;
50092;SDS011;35974;47.752;10.290;2022-10-31T05:30:45;5.18;;;2.45;;
50092;SDS011;35974;47.752;10.290;2022-10-31T05:33:12;5.53;;;2.28;;
50092;SDS011;35974;47.752;10.290;2022-10-31T05:35:38;8.65;;;2.78;;
50092;SDS011;35974;47.752;10.290;2022-10-31T05:38:04;5.65;;;2.72;;
50092;SDS011;35974;47.752;10.290;2022-10-31T05:40:31;8.02;;;2.38;;
50092;SDS011;35974;47.752;10.290;2022-10-31T05:42:57;6.15;;;2.45;;
50092;SDS011;35974;47.752;10.290;2022-10-31T05:45:27;5.53;;;2.50;;
50092;SDS011;35974;47.752;10.290;2022-10-31T05:47:54;7.97;;;2.40;;
50092;SDS011;35974;47.752;10.290;2022-10-31T05:50:26;7.18;;;2.60;;
50092;SDS011;35974;47.752;10.290;2022-10-31T05:52:55;4.53;;;2.10;;
50092;SDS011;35974;47.752;10.290;2022-10-31T05:55:26;8.43;;;2.42;;
50092;SDS011;35974;47.752;10.290;2022-10-31T05:57:54;9.32;;;3.72;;
50092;SDS011;35974;47.752;10.290;2022-10-31T06:00:21;11.60;;;2.90;;
50092;SDS011;35974;47.752;10.290;2022-10-31T06:02:49;8.05;;;3.40;;
50092;SDS011;35974;47.752;10.290;2022-10-31T06:05:15;12.88;;;4.53;;
50092;SDS011;35974;47.752;10.290;2022-10-31T06:07:42;13.23;;;4.60;;
50092;SDS011;35974;47.752;10.290;2022-10-31T06:10:11;13.48;;;4.82;;
50092;SDS011;35974;47.752;10.290;2022-10-31T06:12:37;8.63;;;4.10;;
50092;SDS011;35974;47.752;10.290;2022-10-31T06:15:07;10.82;;;4.40;;
50092;SDS011;35974;47.752;10.290;2022-10-31T06:17:34;9.38;;;4.90;;
50092;SDS011;35974;47.752;10.290;2022-10-31T06:20:01;9.02;;;4.07;;
50092;SDS011;35974;47.752;10.290;2022-10-31T06:22:29;12.82;;;4.35;;
50092;SDS011;35974;47.752;10.290;2022-10-31T06:24:55;10.02;;;4.07;;
50092;SDS011;35974;47.752;10.290;2022-10-31T06:27:22;11.43;;;4.88;;
50092;SDS011;35974;47.752;10.290;2022-10-31T06:29:49;14.38;;;5.70;;
50092;SDS011;35974;47.752;10.290;2022-10-31T06:32:16;11.77;;;5.65;;
50092;SDS011;35974;47.752;10.290;2022-10-31T06:34:43;14.35;;;5.13;;
50092;SDS011;35974;47.752;10.290;2022-10-31T06:37:11;7.35;;;4.22;;
50092;SDS011;35974;47.752;10.290;2022-10-31T06:39:37;10.27;;;4.45;;
50092;SDS011;35974;47.752;10.290;2022-10-31T06:42:04;10.02;;;4.65;;
50092;SDS011;35974;47.752;10.290;2022-10-31T06:44:31;10.15;;;4.35;;
50092;SDS011;35974;47.752;10.290;2022-10-31T06:46:58;11.98;;;5.43;;
50092;SDS011;35974;47.752;10.290;2022-10-31T06:49:24;9.63;;;4.75;;
50092;SDS011;35974;47.752;10.290;2022-10-31T06:51:51;11.07;;;5.53;;
50092;SDS011;35974;47.752;10.290;2022-10-31T06:54:18;9.45;;;4.90;;
50092;SDS011;35974;47.752;10.290;2022-10-31T06:56:45;10.15;;;5.25;;
50092;SDS011;35974;47.752;10.290;2022-10-31T06:59:13;10.85;;;4.97;;
50092;SDS011;35974;47.752;10.290;2022-10-31T07:01:40;12.25;;;4.82;;
50092;SDS011;35974;47.752;10.290;2022-10-31T07:04:09;8.27;;;4.22;;
50092;SDS011;35974;47.752;10.290;2022-10-31T07:06:39;10.65;;;4.53;;
50092;SDS011;35974;47.752;10.290;2022-10-31T07:09:06;7.15;;;4.05;;
50092;SDS011;35974;47.752;10.290;2022-10-31T07:11:32;9.30;;;4.60;;
50092;SDS011;35974;47.752;10.290;2022-10-31T07:13:59;11.00;;;4.10;;
50092;SDS011;35974;47.752;10.290;2022-10-31T07:16:25;10.70;;;4.07;;
50092;SDS011;35974;47.752;10.290;2022-10-31T07:18:54;10.25;;;4.05;;
50092;SDS011;35974;47.752;10.290;2022-10-31T07:21:20;10.55;;;4.50;;
50092;SDS011;35974;47.752;10.290;2022-10-31T07:23:47;12.27;;;4.70;;
50092;SDS011;35974;47.752;10.290;2022-10-31T07:26:14;11.63;;;5.20;;
50092;SDS011;35974;47.752;10.290;2022-10-31T07:28:41;12.02;;;5.30;;
50092;SDS011;35974;47.752;10.290;2022-10-31T07:31:08;10.77;;;5.00;;
50092;SDS011;35974;47.752;10.290;2022-10-31T07:33:34;11.60;;;4.97;;
50092;SDS011;35974;47.752;10.290;2022-10-31T07:36:02;11.05;;;4.57;;
50092;SDS011;35974;47.752;10.290;2022-10-31T07:38:28;12.73;;;5.53;;
50092;SDS011;35974;47.752;10.290;2022-10-31T07:40:55;14.07;;;5.32;;
50092;SDS011;35974;47.752;10.290;2022-10-31T07:43:21;12.10;;;5.88;;
50092;SDS011;35974;47.752;10.290;2022-10-31T07:45:51;11.13;;;5.00;;
50092;SDS011;35974;47.752;10.290;2022-10-31T07:48:19;7.88;;;4.18;;
50092;SDS011;35974;47.752;10.290;2022-10-31T07:50:45;8.57;;;4.20;;
50092;SDS011;35974;47.752;10.290;2022-10-31T07:53:12;10.32;;;4.70;;
50092;SDS011;35974;47.752;10.290;2022-10-31T07:55:42;8.95;;;4.00;;
50092;SDS011;35974;47.752;10.290;2022-10-31T07:58:10;9.65;;;3.97;;
50092;SDS011;35974;47.752;10.290;2022-10-31T08:00:43;8.48;;;3.42;;
50092;SDS011;35974;47.752;10.290;2022-10-31T08:03:12;8.63;;;3.78;;
50092;SDS011;35974;47.752;10.290;2022-10-31T08:05:41;10.52;;;4.28;;
50092;SDS011;35974;47.752;10.290;2022-10-31T08:08:08;13.02;;;4.47;;
50092;SDS011;35974;47.752;10.290;2022-10-31T08:10:35;9.10;;;4.32;;
50092;SDS011;35974;47.752;10.290;2022-10-31T08:13:07;12.27;;;4.00;;
50092;SDS011;35974;47.752;10.290;2022-10-31T08:15:35;10.40;;;3.38;;
50092;SDS011;35974;47.752;10.290;2022-10-31T08:18:05;10.13;;;3.40;;
50092;SDS011;35974;47.752;10.290;2022-10-31T08:20:33;8.10;;;3.70;;
50092;SDS011;35974;47.752;10.290;2022-10-31T08:23:00;6.68;;;3.30;;
50092;SDS011;35974;47.752;10.290;2022-10-31T08:25:28;7.22;;;3.38;;
50092;SDS011;35974;47.752;10.290;2022-10-31T08:28:02;11.48;;;3.80;;
50092;SDS011;35974;47.752;10.290;2022-10-31T08:30:30;8.48;;;3.63;;
50092;SDS011;35974;47.752;10.290;2022-10-31T08:35:35;8.40;;;2.85;;
50092;SDS011;35974;47.752;10.290;2022-10-31T08:38:02;8.00;;;3.00;;
50092;SDS011;35974;47.752;10.290;2022-10-31T08:40:30;7.43;;;2.97;;
50092;SDS011;35974;47.752;10.290;2022-10-31T08:43:20;11.10;;;3.00;;
50092;SDS011;35974;47.752;10.290;2022-10-31T08:45:49;7.00;;;2.80;;
50092;SDS011;35974;47.752;10.290;2022-10-31T08:48:16;9.18;;;3.63;;
50092;SDS011;35974;47.752;10.290;2022-10-31T08:50:45;7.53;;;2.80;;
50092;SDS011;35974;47.752;10.290;2022-10-31T08:53:17;10.93;;;3.20;;
50092;SDS011;35974;47.752;10.290;2022-10-31T08:55:45;8.30;;;2.97;;
50092;SDS011;35974;47.752;10.290;2022-10-31T08:58:13;7.30;;;2.80;;
50092;SDS011;35974;47.752;10.290;2022-10-31T09:00:49;7.53;;;3.05;;
50092;SDS011;35974;47.752;10.290;2022-10-31T09:03:19;7.05;;;3.00;;
50092;SDS011;35974;47.752;10.290;2022-10-31T09:05:47;8.23;;;3.15;;
50092;SDS011;35974;47.752;10.290;2022-10-31T09:08:16;8.48;;;2.80;;
50092;SDS011;35974;47.752;10.290;2022-10-31T09:10:42;6.90;;;2.83;;
50092;SDS011;35974;47.752;10.290;2022-10-31T09:13:10;9.00;;;2.80;;
50092;SDS011;35974;47.752;10.290;2022-10-31T09:15:39;7.20;;;2.80;;
50092;SDS011;35974;47.752;10.290;2022-10-31T09:18:08;10.43;;;2.45;;
50092;SDS011;35974;47.752;10.290;2022-10-31T09:20:36;9.32;;;2.80;;
50092;SDS011;35974;47.752;10.290;2022-10-31T09:23:10;6.85;;;3.05;;
50092;SDS011;35974;47.752;10.290;2022-10-31T09:25:38;7.07;;;2.78;;
50092;SDS011;35974;47.752;10.290;2022-10-31T09:28:05;9.52;;;2.95;;
50092;SDS011;35974;47.752;10.290;2022-10-31T09:30:34;9.75;;;2.80;;
50092;SDS011;35974;47.752;10.290;2022-10-31T09:33:06;6.65;;;2.45;;
50092;SDS011;35974;47.752;10.290;2022-10-31T09:35:35;8.35;;;2.90;;
50092;SDS011;35974;47.752;10.290;2022-10-31T09:38:05;5.78;;;2.80;;
50092;SDS011;35974;47.752;10.290;2022-10-31T09:40:41;6.15;;;2.30;;
50092;SDS011;35974;47.752;10.290;2022-10-31T09:43:25;8.02;;;2.83;;
50092;SDS011;35974;47.752;10.290;2022-10-31T09:49:18;9.85;;;2.72;;
50092;SDS011;35974;47.752;10.290;2022-10-31T09:52:16;11.43;;;3.15;;
50092;SDS011;35974;47.752;10.290;2022-10-31T09:57:17;11.70;;;2.97;;
50092;SDS011;35974;47.752;10.290;2022-10-31T09:59:49;9.00;;;3.10;;
50092;SDS011;35974;47.752;10.290;2022-10-31T10:02:22;7.85;;;2.65;;
50092;SDS011;35974;47.752;10.290;2022-10-31T10:04:58;6.80;;;2.90;;
50092;SDS011;35974;47.752;10.290;2022-10-31T10:22:06;11.75;;;3.15;;
50092;SDS011;35974;47.752;10.290;2022-10-31T10:30:26;8.85;;;3.05;;
50092;SDS011;35974;47.752;10.290;2022-10-31T10:32:57;15.18;;;2.75;;
50092;SDS011;35974;47.752;10.290;2022-10-31T10:35:30;12.48;;;3.08;;
50092;SDS011;35974;47.752;10.290;2022-10-31T10:38:08;6.63;;;2.63;;
50092;SDS011;35974;47.752;10.290;2022-10-31T10:40:40;8.18;;;2.70;;
50092;SDS011;35974;47.752;10.290;2022-10-31T10:43:23;9.45;;;2.78;;
50092;SDS011;35974;47.752;10.290;2022-10-31T10:48:58;9.43;;;3.22;;
50092;SDS011;35974;47.752;10.290;2022-10-31T10:51:30;8.90;;;2.85;;
50092;SDS011;35974;47.752;10.290;2022-10-31T11:00:00;10.27;;;2.50;;
50092;SDS011;35974;47.752;10.290;2022-10-31T11:02:31;10.27;;;2.90;;
50092;SDS011;35974;47.752;10.290;2022-10-31T11:04:59;10.50;;;3.05;;
50092;SDS011;35974;47.752;10.290;2022-10-31T11:07:38;7.55;;;2.80;;
50092;SDS011;35974;47.752;10.290;2022-10-31T11:10:11;9.02;;;2.80;;
50092;SDS011;35974;47.752;10.290;2022-10-31T11:15:22;12.75;;;3.08;;
50092;SDS011;35974;47.752;10.290;2022-10-31T11:17:56;12.60;;;3.38;;
50092;SDS011;35974;47.752;10.290;2022-10-31T11:23:00;13.75;;;3.70;;
50092;SDS011;35974;47.752;10.290;2022-10-31T11:28:56;11.27;;;3.30;;
50092;SDS011;35974;47.752;10.290;2022-10-31T11:31:26;10.18;;;3.25;;
50092;SDS011;35974;47.752;10.290;2022-10-31T11:34:02;9.65;;;3.63;;
50092;SDS011;35974;47.752;10.290;2022-10-31T11:36:35;6.85;;;3.05;;
50092;SDS011;35974;47.752;10.290;2022-10-31T11:39:04;11.05;;;3.60;;
50092;SDS011;35974;47.752;10.290;2022-10-31T11:41:41;7.72;;;2.85;;
50092;SDS011;35974;47.752;10.290;2022-10-31T11:44:12;7.82;;;3.05;;
50092;SDS011;35974;47.752;10.290;2022-10-31T11:46:43;9.13;;;3.13;;
50092;SDS011;35974;47.752;10.290;2022-10-31T11:49:16;14.25;;;7.00;;
50092;SDS011;35974;47.752;10.290;2022-10-31T11:51:53;8.13;;;4.13;;
50092;SDS011;35974;47.752;10.290;2022-10-31T11:54:33;18.15;;;7.28;;
50092;SDS011;35974;47.752;10.290;2022-10-31T11:57:26;13.73;;;8.27;;
50092;SDS011;35974;47.752;10.290;2022-10-31T11:59:59;19.15;;;11.05;;
50092;SDS011;35974;47.752;10.290;2022-10-31T12:02:27;15.40;;;7.38;;
50092;SDS011;35974;47.752;10.290;2022-10-31T12:04:57;10.93;;;4.07;;
50092;SDS011;35974;47.752;10.290;2022-10-31T12:07:46;14.13;;;4.90;;
50092;SDS011;35974;47.752;10.290;2022-10-31T12:10:13;10.23;;;3.40;;
50092;SDS011;35974;47.752;10.290;2022-10-31T12:12:49;10.90;;;2.78;;
50092;SDS011;35974;47.752;10.290;2022-10-31T12:15:33;10.57;;;3.15;;
50092;SDS011;35974;47.752;10.290;2022-10-31T12:18:08;9.60;;;2.67;;
50092;SDS011;35974;47.752;10.290;2022-10-31T12:34:02;12.20;;;4.00;;
50092;SDS011;35974;47.752;10.290;2022-10-31T12:39:56;10.48;;;4.28;;
50092;SDS011;35974;47.752;10.290;2022-10-31T12:47:59;13.05;;;5.53;;
50092;SDS011;35974;47.752;10.290;2022-10-31T13:01:39;12.23;;;4.38;;
50092;SDS011;35974;47.752;10.290;2022-10-31T13:04:19;11.45;;;4.95;;
50092;SDS011;35974;47.752;10.290;2022-10-31T13:07:02;7.22;;;4.03;;
50092;SDS011;35974;47.752;10.290;2022-10-31T13:09:36;8.80;;;3.67;;
50092;SDS011;35974;47.752;10.290;2022-10-31T13:12:08;10.73;;;4.15;;
50092;SDS011;35974;47.752;10.290;2022-10-31T13:14:51;10.80;;;3.85;;
50092;SDS011;35974;47.752;10.290;2022-10-31T13:17:28;10.02;;;4.05;;
50092;SDS011;35974;47.752;10.290;2022-10-31T13:20:05;8.57;;;4.13;;
50092;SDS011;35974;47.752;10.290;2022-10-31T13:22:35;10.63;;;3.60;;
50092;SDS011;35974;47.752;10.290;2022-10-31T13:25:10;8.73;;;3.88;;
50092;SDS011;35974;47.752;10.290;2022-10-31T13:27:52;10.13;;;3.65;;
50092;SDS011;35974;47.752;10.290;2022-10-31T13:30:23;8.15;;;3.22;;
50092;SDS011;35974;47.752;10.290;2022-10-31T13:32:59;14.70;;;4.00;;
50092;SDS011;35974;47.752;10.290;2022-10-31T13:41:15;5.35;;;2.55;;
50092;SDS011;35974;47.752;10.290;2022-10-31T13:43:58;6.63;;;2.45;;
50092;SDS011;35974;47.752;10.290;2022-10-31T13:48:59;8.52;;;2.50;;
50092;SDS011;35974;47.752;10.290;2022-10-31T13:51:32;11.23;;;3.33;;
50092;SDS011;35974;47.752;10.290;2022-10-31T13:54:19;10.88;;;3.28;;
50092;SDS011;35974;47.752;10.290;2022-10-31T13:56:50;12.13;;;4.10;;
50092;SDS011;35974;47.752;10.290;2022-10-31T14:06:57;12.40;;;4.07;;
50092;SDS011;35974;47.752;10.290;2022-10-31T14:09:32;10.13;;;3.60;;
50092;SDS011;35974;47.752;10.290;2022-10-31T14:14:39;10.75;;;3.40;;
50092;SDS011;35974;47.752;10.290;2022-10-31T14:17:18;8.88;;;3.17;;
50092;SDS011;35974;47.752;10.290;2022-10-31T14:19:58;9.38;;;2.95;;
50092;SDS011;35974;47.752;10.290;2022-10-31T14:22:30;10.57;;;4.30;;
50092;SDS011;35974;47.752;10.290;2022-10-31T14:24:57;13.75;;;4.10;;
50092;SDS011;35974;47.752;10.290;2022-10-31T14:29:54;12.15;;;3.78;;
50092;SDS011;35974;47.752;10.290;2022-10-31T14:32:22;12.93;;;3.72;;
50092;SDS011;35974;47.752;10.290;2022-10-31T14:43:02;11.95;;;3.22;;
50092;SDS011;35974;47.752;10.290;2022-10-31T14:45:45;10.70;;;3.80;;
50092;SDS011;35974;47.752;10.290;2022-10-31T14:51:18;8.48;;;3.05;;
50092;SDS011;35974;47.752;10.290;2022-10-31T14:53:53;5.03;;;3.05;;
50092;SDS011;35974;47.752;10.290;2022-10-31T14:58:54;7.57;;;3.00;;
50092;SDS011;35974;47.752;10.290;2022-10-31T15:01:27;8.93;;;2.50;;
50092;SDS011;35974;47.752;10.290;2022-10-31T15:09:30;9.93;;;3.13;;
50092;SDS011;35974;47.752;10.290;2022-10-31T15:11:59;9.23;;;3.05;;
50092;SDS011;35974;47.752;10.290;2022-10-31T15:14:27;10.02;;;2.40;;
50092;SDS011;35974;47.752;10.290;2022-10-31T15:17:01;7.47;;;2.88;;
50092;SDS011;35974;47.752;10.290;2022-10-31T15:19:43;9.48;;;3.20;;
50092;SDS011;35974;47.752;10.290;2022-10-31T15:22:14;9.88;;;3.08;;
50092;SDS011;35974;47.752;10.290;2022-10-31T15:24:43;8.25;;;2.90;;
50092;SDS011;35974;47.752;10.290;2022-10-31T15:27:19;9.90;;;2.83;;
50092;SDS011;35974;47.752;10.290;2022-10-31T15:29:49;11.07;;;3.55;;
50092;SDS011;35974;47.752;10.290;2022-10-31T15:32:22;14.82;;;3.58;;
50092;SDS011;35974;47.752;10.290;2022-10-31T15:34:51;11.93;;;3.42;;
50092;SDS011;35974;47.752;10.290;2022-10-31T15:37:19;15.30;;;3.35;;
50092;SDS011;35974;47.752;10.290;2022-10-31T15:39:48;13.65;;;3.58;;
50092;SDS011;35974;47.752;10.290;2022-10-31T15:42:28;12.63;;;3.83;;
50092;SDS011;35974;47.752;10.290;2022-10-31T15:45:00;11.27;;;4.32;;
50092;SDS011;35974;47.752;10.290;2022-10-31T15:47:30;14.50;;;4.35;;
50092;SDS011;35974;47.752;10.290;2022-10-31T15:50:01;11.18;;;4.32;;
50092;SDS011;35974;47.752;10.290;2022-10-31T15:53:03;9.05;;;3.72;;
50092;SDS011;35974;47.752;10.290;2022-10-31T15:58:01;11.85;;;4.15;;
50092;SDS011;35974;47.752;10.290;2022-10-31T16:00:36;11.02;;;4.32;;
50092;SDS011;35974;47.752;10.290;2022-10-31T16:05:55;13.23;;;5.63;;
50092;SDS011;35974;47.752;10.290;2022-10-31T16:08:25;13.15;;;5.10;;
50092;SDS011;35974;47.752;10.290;2022-10-31T16:11:02;15.93;;;6.78;;
50092;SDS011;35974;47.752;10.290;2022-10-31T16:13:56;17.02;;;7.82;;
50092;SDS011;35974;47.752;10.290;2022-10-31T16:16:33;19.42;;;9.18;;
50092;SDS011;35974;47.752;10.290;2022-10-31T16:19:14;20.73;;;8.18;;
50092;SDS011;35974;47.752;10.290;2022-10-31T16:21:46;20.60;;;8.63;;
50092;SDS011;35974;47.752;10.290;2022-10-31T16:24:24;15.85;;;7.53;;
50092;SDS011;35974;47.752;10.290;2022-10-31T16:26:58;12.98;;;6.05;;
50092;SDS011;35974;47.752;10.290;2022-10-31T16:29:39;13.93;;;5.57;;
50092;SDS011;35974;47.752;10.290;2022-10-31T16:37:34;12.48;;;6.18;;
50092;SDS011;35974;47.752;10.290;2022-10-31T16:40:03;9.45;;;5.50;;
50092;SDS011;35974;47.752;10.290;2022-10-31T16:42:30;10.48;;;5.38;;
50092;SDS011;35974;47.752;10.290;2022-10-31T16:44:58;10.98;;;5.40;;
50092;SDS011;35974;47.752;10.290;2022-10-31T16:47:25;15.60;;;5.93;;
50092;SDS011;35974;47.752;10.290;2022-10-31T16:49:53;12.25;;;6.28;;
50092;SDS011;35974;47.752;10.290;2022-10-31T16:52:25;12.80;;;5.47;;
50092;SDS011;35974;47.752;10.290;2022-10-31T16:54:52;6.93;;;4.55;;
50092;SDS011;35974;47.752;10.290;2022-10-31T16:57:19;10.13;;;5.07;;
50092;SDS011;35974;47.752;10.290;2022-10-31T16:59:55;8.15;;;4.50;;
50092;SDS011;35974;47.752;10.290;2022-10-31T17:02:23;13.93;;;5.50;;
50092;SDS011;35974;47.752;10.290;2022-10-31T17:04:50;14.30;;;5.10;;
50092;SDS011;35974;47.752;10.290;2022-10-31T17:07:21;10.38;;;4.95;;
50092;SDS011;35974;47.752;10.290;2022-10-31T17:09:48;17.67;;;5.75;;
50092;SDS011;35974;47.752;10.290;2022-10-31T17:12:16;14.90;;;5.65;;
50092;SDS011;35974;47.752;10.290;2022-10-31T17:14:48;12.88;;;4.95;;
50092;SDS011;35974;47.752;10.290;2022-10-31T17:17:16;10.20;;;6.70;;
50092;SDS011;35974;47.752;10.290;2022-10-31T17:19:43;14.65;;;5.78;;
50092;SDS011;35974;47.752;10.290;2022-10-31T17:22:10;11.82;;;5.65;;
50092;SDS011;35974;47.752;10.290;2022-10-31T17:24:38;15.18;;;7.95;;
50092;SDS011;35974;47.752;10.290;2022-10-31T17:27:04;10.90;;;5.43;;
50092;SDS011;35974;47.752;10.290;2022-10-31T17:29:31;10.40;;;5.75;;
50092;SDS011;35974;47.752;10.290;2022-10-31T17:32:02;13.00;;;6.50;;